createdAt,value
2022-08-10T00:01:36.032Z,9.53
2022-08-10T00:04:03.325Z,10.60
2022-08-10T00:06:30.217Z,10.63
2022-08-10T00:08:57.176Z,10.57
2022-08-10T00:11:24.645Z,11.17
2022-08-10T00:13:52.146Z,12.15
2022-08-10T00:16:19.344Z,10.90
2022-08-10T00:18:46.126Z,10.80
2022-08-10T00:21:12.901Z,14.10
2022-08-10T00:23:39.824Z,11.00
2022-08-10T00:26:06.743Z,11.33
2022-08-10T00:28:34.177Z,10.33
2022-08-10T00:31:01.101Z,10.63
2022-08-10T00:33:28.066Z,14.40
2022-08-10T00:35:54.825Z,10.90
2022-08-10T00:38:22.472Z,9.07
2022-08-10T00:40:49.463Z,11.50
2022-08-10T00:43:16.934Z,9.53
2022-08-10T00:45:59.330Z,8.33
2022-08-10T00:48:30.516Z,12.13
2022-08-10T00:51:00.600Z,8.55
2022-08-10T00:53:28.542Z,11.23
2022-08-10T00:57:14.591Z,9.27
2022-08-10T00:58:43.951Z,9.50
2022-08-10T01:02:10.097Z,9.43
2022-08-10T01:04:36.175Z,7.60
2022-08-10T01:07:10.226Z,9.50
2022-08-10T01:09:59.710Z,13.20
2022-08-10T01:12:39.043Z,11.83
2022-08-10T01:15:19.413Z,9.53
2022-08-10T01:17:50.534Z,14.50
2022-08-10T01:20:30.079Z,10.60
2022-08-10T01:22:58.042Z,14.83
2022-08-10T01:26:12.372Z,8.73
2022-08-10T01:29:00.865Z,10.70
2022-08-10T01:31:32.974Z,16.10
2022-08-10T01:34:07.862Z,11.70
2022-08-10T01:36:46.409Z,11.17
2022-08-10T01:39:21.666Z,10.53
2022-08-10T01:41:53.528Z,11.23
2022-08-10T01:44:29.434Z,13.57
2022-08-10T01:47:22.360Z,9.20
2022-08-10T01:49:53.901Z,11.57
2022-08-10T01:52:23.978Z,9.43
2022-08-10T01:54:53.323Z,9.23
2022-08-10T01:57:25.800Z,11.00
2022-08-10T02:00:02.104Z,9.03
2022-08-10T02:02:34.131Z,12.90
2022-08-10T02:05:05.150Z,13.70
2022-08-10T02:07:33.465Z,11.83
2022-08-10T02:10:09.656Z,10.60
2022-08-10T02:12:39.755Z,9.27
2022-08-10T02:15:11.149Z,13.30
2022-08-10T02:17:59.093Z,11.25
2022-08-10T02:20:36.808Z,9.80
2022-08-10T02:23:08.859Z,8.93
2022-08-10T02:25:40.648Z,8.15
2022-08-10T02:28:29.992Z,9.90
2022-08-10T02:31:06.923Z,10.47
2022-08-10T02:33:38.936Z,10.07
2022-08-10T02:36:27.077Z,11.53
2022-08-10T02:39:00.018Z,11.80
2022-08-10T02:45:02.152Z,13.93
2022-08-10T02:45:23.851Z,10.50
2022-08-10T02:47:26.595Z,9.93
2022-08-10T02:50:08.332Z,9.30
2022-08-10T02:52:44.398Z,13.30
2022-08-10T02:55:19.865Z,10.90
2022-08-10T02:58:15.298Z,12.23
2022-08-10T03:00:48.611Z,9.73
2022-08-10T03:03:22.564Z,11.60
2022-08-10T03:05:53.568Z,8.40
2022-08-10T03:08:26.460Z,9.73
2022-08-10T03:10:56.569Z,10.83
2022-08-10T03:13:24.864Z,11.63
2022-08-10T03:15:52.036Z,9.23
2022-08-10T03:18:22.827Z,8.63
2022-08-10T03:20:51.288Z,9.50
2022-08-10T03:23:23.366Z,13.73
2022-08-10T03:25:55.249Z,12.20
2022-08-10T03:28:24.717Z,9.23
2022-08-10T03:30:52.995Z,9.77
2022-08-10T03:33:22.275Z,8.83
2022-08-10T03:36:43.365Z,10.47
2022-08-10T03:38:37.685Z,10.77
2022-08-10T03:41:08.603Z,8.77
2022-08-10T03:43:36.660Z,8.73
2022-08-10T03:46:08.037Z,12.93
2022-08-10T03:48:49.237Z,7.67
2022-08-10T03:51:18.800Z,7.87
2022-08-10T03:54:04.335Z,10.43
2022-08-10T03:56:38.791Z,8.07
2022-08-10T03:59:08.005Z,8.07
2022-08-10T04:02:44.075Z,7.13
2022-08-10T04:04:24.492Z,7.90
2022-08-10T04:06:54.651Z,9.43
2022-08-10T04:09:23.879Z,14.37
2022-08-10T04:11:50.648Z,10.53
2022-08-10T04:14:38.334Z,10.30
2022-08-10T04:17:04.266Z,10.17
2022-08-10T04:19:40.991Z,11.43
2022-08-10T04:22:14.796Z,14.83
2022-08-10T04:24:43.279Z,9.33
2022-08-10T04:27:10.313Z,16.13
2022-08-10T04:29:37.610Z,9.50
2022-08-10T04:32:06.546Z,14.27
2022-08-10T04:34:35.502Z,13.33
2022-08-10T04:37:09.047Z,11.20
2022-08-10T04:39:37.476Z,11.17
2022-08-10T04:42:06.144Z,9.87
2022-08-10T04:44:33.814Z,11.67
2022-08-10T04:47:00.600Z,10.43
2022-08-10T04:49:55.704Z,11.63
2022-08-10T04:52:14.944Z,11.90
2022-08-10T04:54:41.924Z,11.67
2022-08-10T04:57:09.054Z,11.17
2022-08-10T04:59:36.302Z,13.03
2022-08-10T05:02:21.590Z,13.87
2022-08-10T05:04:50.266Z,13.67
2022-08-10T05:07:18.665Z,10.23
2022-08-10T05:10:01.859Z,10.47
2022-08-10T05:12:35.698Z,11.87
2022-08-10T05:15:11.669Z,12.70
2022-08-10T05:17:40.216Z,11.02
2022-08-10T05:20:09.910Z,11.43
2022-08-10T05:22:39.416Z,12.30
2022-08-10T05:25:11.239Z,11.00
2022-08-10T05:27:39.322Z,14.93
2022-08-10T05:30:07.659Z,12.55
2022-08-10T05:32:56.411Z,13.00
2022-08-10T05:35:23.141Z,12.60
2022-08-10T05:38:09.349Z,12.40
2022-08-10T05:40:46.306Z,12.23
2022-08-10T05:43:20.078Z,11.05
2022-08-10T05:46:17.573Z,11.27
2022-08-10T05:48:55.363Z,10.57
2022-08-10T05:51:23.648Z,11.35
2022-08-10T05:54:01.432Z,11.43
2022-08-10T05:56:55.326Z,9.15
2022-08-10T06:00:09.071Z,7.95
2022-08-10T06:02:34.042Z,5.63
2022-08-10T06:04:58.606Z,5.22
2022-08-10T06:07:27.451Z,6.93
2022-08-10T06:09:59.317Z,7.15
2022-08-10T06:12:30.878Z,9.18
2022-08-10T06:15:05.732Z,7.90
2022-08-10T06:17:33.175Z,5.32
2022-08-10T06:20:01.221Z,5.00
2022-08-10T06:22:32.350Z,4.97
2022-08-10T06:27:49.343Z,8.65
2022-08-10T06:30:20.420Z,3.88
2022-08-10T06:32:53.582Z,6.28
2022-08-10T06:35:21.305Z,5.15
2022-08-10T06:37:51.850Z,5.20
2022-08-10T06:40:20.278Z,3.65
2022-08-10T06:42:50.037Z,4.18
2022-08-10T06:45:21.358Z,3.85
2022-08-10T06:47:51.043Z,6.13
2022-08-10T06:50:45.306Z,3.53
2022-08-10T06:53:18.374Z,3.78
2022-08-10T06:55:55.569Z,4.80
2022-08-10T06:58:29.394Z,5.80
2022-08-10T07:00:56.948Z,4.97
2022-08-10T07:03:30.716Z,3.75
2022-08-10T07:05:59.914Z,4.55
2022-08-10T07:08:31.492Z,2.90
2022-08-10T07:10:59.358Z,4.00
2022-08-10T07:14:17.315Z,2.45
2022-08-10T07:16:16.496Z,2.83
2022-08-10T07:18:44.946Z,3.20
2022-08-10T07:21:13.716Z,2.58
2022-08-10T07:23:54.942Z,2.55
2022-08-10T07:26:24.978Z,3.17
2022-08-10T07:28:52.746Z,3.15
2022-08-10T07:31:54.607Z,3.08
2022-08-10T07:34:09.401Z,2.78
2022-08-10T07:36:40.232Z,3.40
2022-08-10T07:39:08.956Z,4.05
2022-08-10T07:41:41.275Z,4.00
2022-08-10T07:44:11.362Z,4.68
2022-08-10T07:46:43.272Z,3.42
2022-08-10T07:49:20.510Z,2.80
2022-08-10T07:51:54.534Z,3.65
2022-08-10T07:54:25.292Z,2.30
2022-08-10T07:56:56.417Z,3.03
2022-08-10T07:59:28.521Z,2.08
2022-08-10T08:01:56.325Z,2.10
2022-08-10T08:04:24.885Z,2.17
2022-08-10T08:06:53.646Z,2.17
2022-08-10T08:09:22.077Z,2.53
2022-08-10T08:11:50.159Z,3.67
2022-08-10T08:14:19.111Z,3.88
2022-08-10T08:16:48.934Z,4.68
2022-08-10T08:19:37.959Z,1.60
2022-08-10T08:24:11.140Z,3.80
2022-08-10T08:24:56.948Z,1.58
2022-08-10T08:27:26.215Z,2.97
2022-08-10T08:29:53.776Z,3.97
2022-08-10T08:32:26.383Z,2.17
2022-08-10T08:34:59.688Z,2.55
2022-08-10T08:38:31.940Z,1.50
2022-08-10T08:40:24.512Z,1.40
2022-08-10T08:43:27.308Z,2.70
2022-08-10T08:46:18.290Z,2.38
2022-08-10T08:49:04.811Z,1.35
2022-08-10T08:52:09.715Z,2.35
2022-08-10T08:55:05.209Z,2.65
2022-08-10T08:58:20.453Z,5.90
2022-08-10T09:01:06.401Z,2.20
2022-08-10T09:03:58.034Z,2.10
2022-08-10T09:06:52.548Z,2.42
2022-08-10T09:09:38.508Z,1.30
2022-08-10T09:12:33.969Z,1.17
2022-08-10T09:15:09.570Z,5.57
2022-08-10T09:18:05.570Z,2.88
2022-08-10T09:20:49.340Z,2.10
2022-08-10T09:24:04.038Z,2.70
2022-08-10T09:26:22.874Z,2.28
2022-08-10T09:29:12.266Z,1.40
2022-08-10T09:36:13.657Z,1.63
2022-08-10T09:36:19.533Z,2.95
2022-08-10T09:38:04.200Z,3.22
2022-08-10T09:41:06.276Z,2.88
2022-08-10T09:43:43.779Z,1.10
2022-08-10T09:46:22.770Z,1.52
2022-08-10T09:49:09.520Z,3.47
2022-08-10T09:51:55.116Z,1.80
2022-08-10T09:54:57.302Z,1.63
2022-08-10T09:57:46.739Z,2.17
2022-08-10T10:00:20.606Z,1.45
2022-08-10T10:03:17.753Z,3.95
2022-08-10T10:06:09.915Z,2.20
2022-08-10T10:08:53.799Z,2.35
2022-08-10T10:12:09.717Z,3.17
2022-08-10T10:15:09.744Z,2.75
2022-08-10T10:18:02.798Z,1.90
2022-08-10T10:20:53.991Z,3.88
2022-08-10T10:23:55.178Z,1.70
2022-08-10T10:26:50.286Z,1.83
2022-08-10T10:29:56.414Z,1.55
2022-08-10T10:32:37.328Z,2.65
2022-08-10T10:35:23.549Z,2.47
2022-08-10T10:38:02.639Z,1.60
2022-08-10T10:40:52.808Z,2.15
2022-08-10T10:43:54.573Z,4.35
2022-08-10T10:46:48.311Z,2.35
2022-08-10T10:49:35.427Z,3.70
2022-08-10T10:52:14.861Z,3.83
2022-08-10T10:54:59.840Z,2.53
2022-08-10T10:58:09.015Z,1.73
2022-08-10T11:00:55.767Z,1.67
2022-08-10T11:03:41.102Z,2.30
2022-08-10T11:06:40.545Z,3.03
2022-08-10T11:10:04.877Z,2.55
2022-08-10T11:12:18.266Z,2.42
2022-08-10T11:15:09.360Z,2.40
2022-08-10T11:17:48.956Z,1.95
2022-08-10T11:20:54.211Z,1.02
2022-08-10T11:23:41.878Z,2.10
2022-08-10T11:26:35.328Z,3.65
2022-08-10T11:29:18.498Z,2.67
2022-08-10T11:31:55.537Z,5.10
2022-08-10T11:34:49.205Z,3.53
2022-08-10T11:38:31.195Z,2.50
2022-08-10T11:40:50.771Z,2.58
2022-08-10T11:43:22.634Z,2.90
2022-08-10T11:46:27.674Z,3.35
2022-08-10T11:49:13.770Z,4.85
2022-08-10T11:51:48.333Z,3.65
2022-08-10T11:54:37.215Z,2.22
2022-08-10T11:57:04.249Z,3.33
2022-08-10T11:59:57.888Z,2.88
2022-08-10T12:02:44.653Z,2.70
2022-08-10T12:05:48.214Z,4.10
2022-08-10T12:10:12.096Z,5.10
2022-08-10T12:11:05.636Z,2.33
2022-08-10T12:13:58.487Z,2.08
2022-08-10T12:16:35.022Z,2.70
2022-08-10T12:19:08.807Z,2.47
2022-08-10T12:21:42.868Z,2.92
2022-08-10T12:24:18.445Z,1.60
2022-08-10T12:27:19.997Z,1.83
2022-08-10T12:29:59.175Z,3.67
2022-08-10T12:32:35.596Z,4.13
2022-08-10T12:35:35.725Z,1.50
2022-08-10T12:38:15.000Z,3.53
2022-08-10T12:40:48.645Z,3.03
2022-08-10T12:44:05.051Z,2.03
2022-08-10T12:46:32.347Z,3.05
2022-08-10T12:49:20.141Z,4.22
2022-08-10T12:51:55.794Z,2.03
2022-08-10T12:54:32.546Z,3.67
2022-08-10T12:57:03.591Z,3.47
2022-08-10T12:59:32.064Z,2.80
2022-08-10T13:02:10.249Z,3.42
2022-08-10T13:04:40.511Z,2.65
2022-08-10T13:07:10.033Z,3.03
2022-08-10T13:09:56.542Z,3.08
2022-08-10T13:12:44.455Z,2.47
2022-08-10T13:15:47.999Z,2.70
2022-08-10T13:18:06.919Z,3.47
2022-08-10T13:20:52.177Z,3.03
2022-08-10T13:23:27.510Z,4.47
2022-08-10T13:25:58.206Z,3.53
2022-08-10T13:28:39.609Z,3.40
2022-08-10T13:31:16.794Z,3.58
2022-08-10T13:34:39.510Z,6.20
2022-08-10T13:36:47.621Z,2.90
2022-08-10T13:39:19.759Z,1.67
2022-08-10T13:41:49.250Z,3.35
2022-08-10T13:44:28.226Z,2.58
2022-08-10T13:46:56.413Z,6.50
2022-08-10T13:49:23.520Z,1.98
2022-08-10T13:51:56.970Z,3.47
2022-08-10T13:54:37.169Z,3.00
2022-08-10T13:57:05.198Z,1.85
2022-08-10T14:00:37.592Z,1.75
2022-08-10T14:02:25.720Z,3.42
2022-08-10T14:04:55.706Z,1.65
2022-08-10T14:07:24.121Z,2.20
2022-08-10T14:09:53.179Z,2.45
2022-08-10T14:12:33.386Z,1.80
2022-08-10T14:15:03.147Z,2.28
2022-08-10T14:17:30.525Z,3.25
2022-08-10T14:19:59.478Z,2.78
2022-08-10T14:22:33.901Z,4.82
2022-08-10T14:25:19.347Z,1.80
2022-08-10T14:28:01.929Z,1.90
2022-08-10T14:30:31.326Z,1.90
2022-08-10T14:33:04.043Z,1.75
2022-08-10T14:36:19.106Z,1.77
2022-08-10T14:38:26.672Z,2.88
2022-08-10T14:40:57.001Z,1.63
2022-08-10T14:43:32.966Z,1.55
2022-08-10T14:46:06.469Z,1.55
2022-08-10T14:48:39.913Z,2.22
2022-08-10T14:51:10.862Z,2.17
2022-08-10T14:53:39.992Z,2.22
2022-08-10T14:56:14.457Z,1.40
2022-08-10T14:59:05.426Z,2.22
2022-08-10T15:02:01.150Z,1.60
2022-08-10T15:04:26.592Z,1.40
2022-08-10T15:07:00.118Z,1.33
2022-08-10T15:10:01.168Z,1.60
2022-08-10T15:12:33.072Z,1.48
2022-08-10T15:15:01.411Z,2.83
2022-08-10T15:17:37.637Z,1.75
2022-08-10T15:20:16.722Z,2.83
2022-08-10T15:22:50.878Z,3.08
2022-08-10T15:25:24.646Z,2.70
2022-08-10T15:28:17.056Z,2.03
2022-08-10T15:30:47.447Z,1.90
2022-08-10T15:33:57.931Z,3.78
2022-08-10T15:36:58.720Z,4.10
2022-08-10T15:40:22.305Z,1.77
2022-08-10T15:42:23.899Z,2.20
2022-08-10T15:44:54.019Z,1.80
2022-08-10T15:47:45.307Z,2.88
2022-08-10T15:50:34.441Z,1.35
2022-08-10T15:53:28.079Z,3.80
2022-08-10T15:55:58.744Z,1.58
2022-08-10T15:58:39.317Z,2.15
2022-08-10T16:02:13.970Z,1.85
2022-08-10T16:04:49.691Z,3.10
2022-08-10T16:07:21.801Z,1.73
2022-08-10T16:10:24.577Z,2.72
2022-08-10T16:12:59.790Z,2.33
2022-08-10T16:15:30.259Z,5.95
2022-08-10T16:18:09.625Z,4.13
2022-08-10T16:20:54.830Z,3.22
2022-08-10T16:23:29.320Z,3.13
2022-08-10T16:26:04.666Z,3.70
2022-08-10T16:28:51.823Z,2.20
2022-08-10T16:31:22.385Z,1.90
2022-08-10T16:33:55.746Z,3.92
2022-08-10T16:36:32.110Z,3.22
2022-08-10T16:39:00.241Z,2.65
2022-08-10T16:42:05.241Z,3.92
2022-08-10T16:44:19.557Z,2.50
2022-08-10T16:46:47.503Z,4.47
2022-08-10T16:49:16.706Z,4.15
2022-08-10T16:51:49.271Z,2.03
2022-08-10T16:54:27.314Z,3.15
2022-08-10T16:57:01.307Z,1.48
2022-08-10T16:59:31.145Z,1.77
2022-08-10T17:02:00.372Z,4.80
2022-08-10T17:04:29.355Z,2.53
2022-08-10T17:06:58.290Z,2.08
2022-08-10T17:09:32.028Z,2.38
2022-08-10T17:12:04.277Z,4.10
2022-08-10T17:14:31.400Z,2.50
2022-08-10T17:17:00.564Z,2.05
2022-08-10T17:19:30.207Z,1.80
2022-08-10T17:21:59.644Z,2.20
2022-08-10T17:24:34.335Z,1.92
2022-08-10T17:28:24.394Z,4.72
2022-08-10T17:30:04.646Z,1.80
2022-08-10T17:32:44.807Z,3.90
2022-08-10T17:35:14.530Z,2.60
2022-08-10T17:37:48.555Z,6.15
2022-08-10T17:40:18.924Z,7.88
2022-08-10T17:42:50.444Z,4.55
2022-08-10T17:45:47.816Z,3.60
2022-08-10T17:48:09.696Z,2.33
2022-08-10T17:50:38.059Z,12.25
2022-08-10T17:53:08.307Z,2.20
2022-08-10T17:55:38.498Z,2.97
2022-08-10T17:58:13.655Z,5.25
2022-08-10T18:00:46.034Z,4.20
2022-08-10T18:03:25.055Z,3.05
2022-08-10T18:05:56.224Z,2.38
2022-08-10T18:08:32.057Z,4.05
2022-08-10T18:11:00.584Z,5.03
2022-08-10T18:13:55.155Z,3.15
2022-08-10T18:16:24.851Z,4.13
2022-08-10T18:18:58.354Z,3.30
2022-08-10T18:21:30.732Z,2.55
2022-08-10T18:24:07.707Z,3.13
2022-08-10T18:26:41.030Z,6.45
2022-08-10T18:29:14.014Z,5.72
2022-08-10T18:31:47.573Z,4.90
2022-08-10T18:34:19.802Z,3.97
2022-08-10T18:36:48.617Z,2.67
2022-08-10T18:39:21.893Z,2.17
2022-08-10T18:42:00.333Z,3.70
2022-08-10T18:44:41.064Z,4.35
2022-08-10T18:47:16.179Z,2.15
2022-08-10T18:49:59.375Z,3.45
2022-08-10T18:52:29.702Z,2.72
2022-08-10T18:55:14.398Z,2.33
2022-08-10T18:58:16.162Z,5.07
2022-08-10T19:01:04.764Z,2.45
2022-08-10T19:03:59.294Z,3.70
2022-08-10T19:06:55.597Z,6.30
2022-08-10T19:09:45.865Z,3.20
2022-08-10T19:12:31.638Z,3.58
2022-08-10T19:15:36.301Z,5.13
2022-08-10T19:18:31.207Z,2.55
2022-08-10T19:21:08.130Z,3.65
2022-08-10T19:23:43.651Z,2.60
2022-08-10T19:26:44.129Z,4.00
2022-08-10T19:30:11.165Z,6.15
2022-08-10T19:32:37.406Z,2.92
2022-08-10T19:35:11.046Z,2.80
2022-08-10T19:38:31.996Z,2.40
2022-08-10T19:41:12.801Z,2.35
2022-08-10T19:44:03.088Z,3.30
2022-08-10T19:47:11.373Z,2.83
2022-08-10T19:49:45.694Z,3.53
2022-08-10T19:52:27.208Z,2.28
2022-08-10T19:55:17.600Z,2.35
2022-08-10T19:57:49.669Z,3.58
2022-08-10T20:00:22.950Z,3.03
2022-08-10T20:03:03.116Z,3.25
2022-08-10T20:05:39.162Z,3.22
2022-08-10T20:08:13.659Z,5.03
2022-08-10T20:11:46.236Z,5.50
2022-08-10T20:14:22.497Z,4.20
2022-08-10T20:16:53.508Z,3.85
2022-08-10T20:19:53.460Z,3.65
2022-08-10T20:22:34.884Z,4.77
2022-08-10T20:25:06.057Z,4.63
2022-08-10T20:27:59.556Z,5.43
2022-08-10T20:30:32.506Z,4.85
2022-08-10T20:33:12.304Z,4.55
2022-08-10T20:35:53.289Z,4.00
2022-08-10T20:38:29.011Z,3.15
2022-08-10T20:41:33.891Z,4.50
2022-08-10T20:44:31.778Z,4.00
2022-08-10T20:47:36.929Z,5.03
2022-08-10T20:50:35.044Z,3.70
2022-08-10T20:53:14.996Z,5.95
2022-08-10T20:55:54.202Z,5.03
2022-08-10T20:58:58.448Z,6.78
2022-08-10T21:02:06.230Z,5.88
2022-08-10T21:04:33.466Z,6.97
2022-08-10T21:07:43.966Z,7.03
2022-08-10T21:10:16.316Z,3.83
2022-08-10T21:12:44.176Z,7.10
2022-08-10T21:15:55.653Z,4.70
2022-08-10T21:18:25.726Z,4.10
2022-08-10T21:21:01.510Z,8.55
2022-08-10T21:23:32.243Z,5.18
2022-08-10T21:26:13.508Z,5.30
2022-08-10T21:28:50.214Z,4.97
2022-08-10T21:31:38.797Z,7.95
2022-08-10T21:34:32.122Z,5.27
2022-08-10T21:37:08.024Z,4.23
2022-08-10T21:39:50.727Z,5.88
2022-08-10T21:42:51.206Z,5.38
2022-08-10T21:45:58.242Z,4.32
2022-08-10T21:48:57.815Z,5.22
2022-08-10T21:52:06.792Z,6.73
2022-08-10T21:55:02.180Z,4.80
2022-08-10T21:58:05.374Z,6.97
2022-08-10T22:00:55.822Z,7.30
2022-08-10T22:03:42.117Z,7.50
2022-08-10T22:06:31.055Z,4.70
2022-08-10T22:09:26.543Z,7.20
2022-08-10T22:12:24.906Z,4.70
2022-08-10T22:16:03.826Z,6.18
2022-08-10T22:18:58.741Z,5.83
2022-08-10T22:22:27.420Z,6.13
2022-08-10T22:25:29.358Z,6.17
2022-08-10T22:28:18.096Z,6.87
2022-08-10T22:31:30.955Z,6.30
2022-08-10T22:34:51.006Z,5.30
2022-08-10T22:37:52.616Z,9.00
2022-08-10T22:40:40.978Z,7.50
2022-08-10T22:43:35.562Z,9.67
2022-08-10T22:46:30.427Z,5.90
2022-08-10T22:49:00.107Z,7.53
2022-08-10T22:52:10.359Z,8.90
2022-08-10T22:55:21.236Z,9.17
2022-08-10T22:58:08.674Z,8.57
2022-08-10T23:00:37.239Z,6.30
2022-08-10T23:03:15.924Z,7.33
2022-08-10T23:05:57.586Z,8.77
2022-08-10T23:08:32.042Z,8.40
2022-08-10T23:11:08.495Z,9.57
2022-08-10T23:13:40.786Z,7.13
2022-08-10T23:16:36.944Z,7.97
2022-08-10T23:19:37.999Z,7.53
2022-08-10T23:22:13.806Z,8.23
2022-08-10T23:25:15.130Z,8.70
2022-08-10T23:27:46.733Z,7.20
2022-08-10T23:30:17.438Z,9.80
2022-08-10T23:32:51.289Z,8.33
2022-08-10T23:36:31.003Z,6.50
2022-08-10T23:38:12.393Z,10.57
2022-08-10T23:40:45.442Z,10.57
2022-08-10T23:43:18.889Z,6.57
2022-08-10T23:45:53.756Z,7.53
2022-08-10T23:48:29.584Z,6.70
2022-08-10T23:51:01.853Z,8.33
2022-08-10T23:53:41.325Z,5.97
2022-08-10T23:56:12.521Z,11.10
2022-08-10T23:58:44.725Z,7.57
